sensor_id;sensor_type;location;lat;lon;timestamp;P1;durP1;ratioP1;P2;durP2;ratioP2
29380;SDS011;16364;52.490;13.326;2022-10-30T00:00:23;23.40;;;14.13;;
29380;SDS011;16364;52.490;13.326;2022-10-30T00:02:48;15.23;;;13.20;;
29380;SDS011;16364;52.490;13.326;2022-10-30T00:05:13;18.10;;;14.60;;
29380;SDS011;16364;52.490;13.326;2022-10-30T00:07:39;16.67;;;14.30;;
29380;SDS011;16364;52.490;13.326;2022-10-30T00:10:04;14.83;;;12.10;;
29380;SDS011;16364;52.490;13.326;2022-10-30T00:12:30;16.70;;;13.57;;
29380;SDS011;16364;52.490;13.326;2022-10-30T00:14:55;21.33;;;14.60;;
29380;SDS011;16364;52.490;13.326;2022-10-30T00:17:20;18.33;;;14.40;;
29380;SDS011;16364;52.490;13.326;2022-10-30T00:19:45;19.03;;;14.27;;
29380;SDS011;16364;52.490;13.326;2022-10-30T00:22:10;16.93;;;14.27;;
29380;SDS011;16364;52.490;13.326;2022-10-30T00:24:36;16.17;;;13.90;;
29380;SDS011;16364;52.490;13.326;2022-10-30T00:27:01;18.43;;;13.90;;
29380;SDS011;16364;52.490;13.326;2022-10-30T00:29:26;14.37;;;12.87;;
29380;SDS011;16364;52.490;13.326;2022-10-30T00:31:52;16.43;;;12.93;;
29380;SDS011;16364;52.490;13.326;2022-10-30T00:34:17;16.37;;;13.70;;
29380;SDS011;16364;52.490;13.326;2022-10-30T00:36:42;16.13;;;14.20;;
29380;SDS011;16364;52.490;13.326;2022-10-30T00:39:07;18.30;;;14.37;;
29380;SDS011;16364;52.490;13.326;2022-10-30T00:41:32;18.00;;;13.87;;
29380;SDS011;16364;52.490;13.326;2022-10-30T00:43:58;19.03;;;14.40;;
29380;SDS011;16364;52.490;13.326;2022-10-30T00:48:52;15.43;;;13.20;;
29380;SDS011;16364;52.490;13.326;2022-10-30T00:51:18;18.47;;;15.37;;
29380;SDS011;16364;52.490;13.326;2022-10-30T00:53:43;17.13;;;13.60;;
29380;SDS011;16364;52.490;13.326;2022-10-30T00:56:10;21.10;;;13.77;;
29380;SDS011;16364;52.490;13.326;2022-10-30T00:58:37;21.20;;;14.97;;
29380;SDS011;16364;52.490;13.326;2022-10-30T01:01:04;21.33;;;16.03;;
29380;SDS011;16364;52.490;13.326;2022-10-30T01:03:31;22.63;;;16.67;;
29380;SDS011;16364;52.490;13.326;2022-10-30T01:05:59;21.13;;;15.83;;
29380;SDS011;16364;52.490;13.326;2022-10-30T01:08:24;25.50;;;19.10;;
29380;SDS011;16364;52.490;13.326;2022-10-30T01:10:50;20.77;;;17.90;;
29380;SDS011;16364;52.490;13.326;2022-10-30T01:13:15;17.80;;;15.53;;
29380;SDS011;16364;52.490;13.326;2022-10-30T01:15:47;21.33;;;18.37;;
29380;SDS011;16364;52.490;13.326;2022-10-30T01:18:19;19.97;;;14.30;;
29380;SDS011;16364;52.490;13.326;2022-10-30T01:29:11;18.33;;;14.33;;
29380;SDS011;16364;52.490;13.326;2022-10-30T01:39:25;19.83;;;14.87;;
29380;SDS011;16364;52.490;13.326;2022-10-30T01:41:50;19.87;;;16.83;;
29380;SDS011;16364;52.490;13.326;2022-10-30T01:44:17;20.77;;;16.93;;
29380;SDS011;16364;52.490;13.326;2022-10-30T01:59:38;23.93;;;15.77;;
29380;SDS011;16364;52.490;13.326;2022-10-30T02:02:04;19.97;;;16.13;;
29380;SDS011;16364;52.490;13.326;2022-10-30T02:04:29;21.60;;;16.30;;
29380;SDS011;16364;52.490;13.326;2022-10-30T02:06:54;17.60;;;15.77;;
29380;SDS011;16364;52.490;13.326;2022-10-30T02:09:20;21.27;;;16.73;;
29380;SDS011;16364;52.490;13.326;2022-10-30T02:11:45;23.50;;;16.90;;
29380;SDS011;16364;52.490;13.326;2022-10-30T02:14:11;21.43;;;15.90;;
29380;SDS011;16364;52.490;13.326;2022-10-30T02:16:40;23.03;;;16.00;;
29380;SDS011;16364;52.490;13.326;2022-10-30T02:19:06;19.70;;;17.40;;
29380;SDS011;16364;52.490;13.326;2022-10-30T02:21:31;18.57;;;16.23;;
29380;SDS011;16364;52.490;13.326;2022-10-30T02:23:57;21.97;;;17.03;;
29380;SDS011;16364;52.490;13.326;2022-10-30T02:26:22;21.30;;;17.07;;
29380;SDS011;16364;52.490;13.326;2022-10-30T02:28:47;19.40;;;15.00;;
29380;SDS011;16364;52.490;13.326;2022-10-30T02:31:12;17.87;;;14.47;;
29380;SDS011;16364;52.490;13.326;2022-10-30T02:33:37;21.73;;;15.90;;
29380;SDS011;16364;52.490;13.326;2022-10-30T02:36:03;16.97;;;14.93;;
29380;SDS011;16364;52.490;13.326;2022-10-30T02:38:28;20.67;;;16.43;;
29380;SDS011;16364;52.490;13.326;2022-10-30T02:40:55;18.50;;;14.73;;
29380;SDS011;16364;52.490;13.326;2022-10-30T02:43:21;17.50;;;15.10;;
29380;SDS011;16364;52.490;13.326;2022-10-30T02:45:49;19.43;;;15.37;;
29380;SDS011;16364;52.490;13.326;2022-10-30T02:48:14;18.43;;;14.77;;
29380;SDS011;16364;52.490;13.326;2022-10-30T02:50:39;18.70;;;15.18;;
29380;SDS011;16364;52.490;13.326;2022-10-30T02:53:04;22.27;;;16.07;;
29380;SDS011;16364;52.490;13.326;2022-10-30T02:55:29;20.43;;;15.70;;
29380;SDS011;16364;52.490;13.326;2022-10-30T02:57:55;19.93;;;15.20;;
29380;SDS011;16364;52.490;13.326;2022-10-30T03:00:20;23.43;;;16.17;;
29380;SDS011;16364;52.490;13.326;2022-10-30T03:02:45;17.50;;;15.70;;
29380;SDS011;16364;52.490;13.326;2022-10-30T03:05:10;25.40;;;17.83;;
29380;SDS011;16364;52.490;13.326;2022-10-30T03:07:35;24.23;;;17.17;;
29380;SDS011;16364;52.490;13.326;2022-10-30T03:10:01;20.00;;;16.53;;
29380;SDS011;16364;52.490;13.326;2022-10-30T03:12:26;19.50;;;15.83;;
29380;SDS011;16364;52.490;13.326;2022-10-30T03:14:51;23.97;;;16.60;;
29380;SDS011;16364;52.490;13.326;2022-10-30T03:17:16;19.90;;;14.80;;
29380;SDS011;16364;52.490;13.326;2022-10-30T03:19:41;19.67;;;14.73;;
29380;SDS011;16364;52.490;13.326;2022-10-30T03:22:07;23.23;;;15.87;;
29380;SDS011;16364;52.490;13.326;2022-10-30T03:24:32;22.30;;;15.37;;
29380;SDS011;16364;52.490;13.326;2022-10-30T03:26:57;17.87;;;14.70;;
29380;SDS011;16364;52.490;13.326;2022-10-30T03:29:22;19.23;;;15.77;;
29380;SDS011;16364;52.490;13.326;2022-10-30T03:31:47;20.80;;;15.70;;
29380;SDS011;16364;52.490;13.326;2022-10-30T03:34:12;24.67;;;17.03;;
29380;SDS011;16364;52.490;13.326;2022-10-30T03:36:38;22.43;;;16.00;;
29380;SDS011;16364;52.490;13.326;2022-10-30T03:39:03;19.77;;;15.43;;
29380;SDS011;16364;52.490;13.326;2022-10-30T03:41:28;18.77;;;14.10;;
29380;SDS011;16364;52.490;13.326;2022-10-30T03:43:54;21.67;;;15.93;;
29380;SDS011;16364;52.490;13.326;2022-10-30T03:46:19;21.73;;;15.00;;
29380;SDS011;16364;52.490;13.326;2022-10-30T03:48:47;21.63;;;15.57;;
29380;SDS011;16364;52.490;13.326;2022-10-30T03:51:12;18.50;;;14.73;;
29380;SDS011;16364;52.490;13.326;2022-10-30T03:53:37;17.57;;;14.53;;
29380;SDS011;16364;52.490;13.326;2022-10-30T03:56:03;20.83;;;15.27;;
29380;SDS011;16364;52.490;13.326;2022-10-30T03:58:28;21.50;;;16.07;;
29380;SDS011;16364;52.490;13.326;2022-10-30T04:00:53;17.97;;;15.87;;
29380;SDS011;16364;52.490;13.326;2022-10-30T04:03:19;20.43;;;15.33;;
29380;SDS011;16364;52.490;13.326;2022-10-30T04:05:44;16.07;;;14.40;;
29380;SDS011;16364;52.490;13.326;2022-10-30T04:08:10;17.77;;;15.97;;
29380;SDS011;16364;52.490;13.326;2022-10-30T04:10:35;16.13;;;12.00;;
29380;SDS011;16364;52.490;13.326;2022-10-30T04:13:01;15.63;;;13.30;;
29380;SDS011;16364;52.490;13.326;2022-10-30T04:15:27;20.83;;;13.07;;
29380;SDS011;16364;52.490;13.326;2022-10-30T04:17:52;17.93;;;13.73;;
29380;SDS011;16364;52.490;13.326;2022-10-30T04:20:18;14.80;;;13.30;;
29380;SDS011;16364;52.490;13.326;2022-10-30T04:22:43;15.33;;;13.40;;
29380;SDS011;16364;52.490;13.326;2022-10-30T04:25:09;17.23;;;12.80;;
29380;SDS011;16364;52.490;13.326;2022-10-30T04:27:38;15.83;;;14.17;;
29380;SDS011;16364;52.490;13.326;2022-10-30T04:30:04;20.40;;;14.63;;
29380;SDS011;16364;52.490;13.326;2022-10-30T04:32:29;20.10;;;13.90;;
29380;SDS011;16364;52.490;13.326;2022-10-30T04:34:54;19.03;;;13.87;;
29380;SDS011;16364;52.490;13.326;2022-10-30T04:37:19;16.60;;;13.87;;
29380;SDS011;16364;52.490;13.326;2022-10-30T04:39:44;16.90;;;13.90;;
29380;SDS011;16364;52.490;13.326;2022-10-30T04:42:12;17.63;;;12.70;;
29380;SDS011;16364;52.490;13.326;2022-10-30T04:44:37;13.00;;;11.50;;
29380;SDS011;16364;52.490;13.326;2022-10-30T04:47:02;20.73;;;13.03;;
29380;SDS011;16364;52.490;13.326;2022-10-30T04:49:28;23.73;;;15.67;;
29380;SDS011;16364;52.490;13.326;2022-10-30T04:51:53;19.20;;;12.33;;
29380;SDS011;16364;52.490;13.326;2022-10-30T04:54:18;15.90;;;12.50;;
29380;SDS011;16364;52.490;13.326;2022-10-30T04:56:45;14.13;;;12.40;;
29380;SDS011;16364;52.490;13.326;2022-10-30T04:59:10;15.47;;;12.43;;
29380;SDS011;16364;52.490;13.326;2022-10-30T05:01:35;14.40;;;12.93;;
29380;SDS011;16364;52.490;13.326;2022-10-30T05:04:00;13.80;;;12.40;;
29380;SDS011;16364;52.490;13.326;2022-10-30T05:06:27;14.60;;;13.00;;
29380;SDS011;16364;52.490;13.326;2022-10-30T05:08:54;15.20;;;12.30;;
29380;SDS011;16364;52.490;13.326;2022-10-30T05:11:20;14.10;;;12.53;;
29380;SDS011;16364;52.490;13.326;2022-10-30T05:13:45;20.47;;;14.10;;
29380;SDS011;16364;52.490;13.326;2022-10-30T05:16:10;13.77;;;12.10;;
29380;SDS011;16364;52.490;13.326;2022-10-30T05:18:35;18.63;;;12.60;;
29380;SDS011;16364;52.490;13.326;2022-10-30T05:21:01;19.30;;;12.83;;
29380;SDS011;16364;52.490;13.326;2022-10-30T05:23:26;20.03;;;14.23;;
29380;SDS011;16364;52.490;13.326;2022-10-30T05:25:51;15.77;;;13.53;;
29380;SDS011;16364;52.490;13.326;2022-10-30T05:28:16;16.80;;;13.47;;
29380;SDS011;16364;52.490;13.326;2022-10-30T05:30:41;15.37;;;13.53;;
29380;SDS011;16364;52.490;13.326;2022-10-30T05:33:08;14.70;;;12.93;;
29380;SDS011;16364;52.490;13.326;2022-10-30T05:35:34;19.13;;;14.40;;
29380;SDS011;16364;52.490;13.326;2022-10-30T05:38:00;15.23;;;12.33;;
29380;SDS011;16364;52.490;13.326;2022-10-30T05:40:25;16.83;;;13.67;;
29380;SDS011;16364;52.490;13.326;2022-10-30T05:42:51;16.90;;;12.77;;
29380;SDS011;16364;52.490;13.326;2022-10-30T05:45:16;19.33;;;12.80;;
29380;SDS011;16364;52.490;13.326;2022-10-30T05:47:42;21.57;;;13.70;;
29380;SDS011;16364;52.490;13.326;2022-10-30T05:50:07;21.87;;;13.80;;
29380;SDS011;16364;52.490;13.326;2022-10-30T05:52:33;13.70;;;11.73;;
29380;SDS011;16364;52.490;13.326;2022-10-30T05:54:58;16.40;;;12.43;;
29380;SDS011;16364;52.490;13.326;2022-10-30T05:57:23;19.70;;;13.63;;
29380;SDS011;16364;52.490;13.326;2022-10-30T05:59:48;19.63;;;13.63;;
29380;SDS011;16364;52.490;13.326;2022-10-30T06:02:15;21.17;;;14.90;;
29380;SDS011;16364;52.490;13.326;2022-10-30T06:04:40;20.10;;;13.97;;
29380;SDS011;16364;52.490;13.326;2022-10-30T06:07:05;14.57;;;13.07;;
29380;SDS011;16364;52.490;13.326;2022-10-30T06:09:31;15.60;;;13.80;;
29380;SDS011;16364;52.490;13.326;2022-10-30T06:11:56;15.97;;;13.30;;
29380;SDS011;16364;52.490;13.326;2022-10-30T06:14:22;15.10;;;10.73;;
29380;SDS011;16364;52.490;13.326;2022-10-30T06:16:47;13.60;;;10.90;;
29380;SDS011;16364;52.490;13.326;2022-10-30T06:19:12;16.70;;;12.57;;
29380;SDS011;16364;52.490;13.326;2022-10-30T06:21:38;15.17;;;12.07;;
29380;SDS011;16364;52.490;13.326;2022-10-30T06:24:03;16.27;;;12.00;;
29380;SDS011;16364;52.490;13.326;2022-10-30T06:26:28;17.90;;;14.03;;
29380;SDS011;16364;52.490;13.326;2022-10-30T06:28:53;18.70;;;14.97;;
29380;SDS011;16364;52.490;13.326;2022-10-30T06:31:18;16.47;;;13.33;;
29380;SDS011;16364;52.490;13.326;2022-10-30T06:33:44;15.80;;;11.43;;
29380;SDS011;16364;52.490;13.326;2022-10-30T06:36:09;13.97;;;11.37;;
29380;SDS011;16364;52.490;13.326;2022-10-30T06:38:34;18.87;;;12.57;;
29380;SDS011;16364;52.490;13.326;2022-10-30T06:40:59;16.73;;;11.43;;
29380;SDS011;16364;52.490;13.326;2022-10-30T06:43:25;15.00;;;12.33;;
29380;SDS011;16364;52.490;13.326;2022-10-30T06:45:50;14.70;;;12.10;;
29380;SDS011;16364;52.490;13.326;2022-10-30T06:48:15;16.93;;;10.20;;
29380;SDS011;16364;52.490;13.326;2022-10-30T06:50:42;15.77;;;10.50;;
29380;SDS011;16364;52.490;13.326;2022-10-30T06:53:07;14.00;;;10.50;;
29380;SDS011;16364;52.490;13.326;2022-10-30T06:55:33;19.30;;;13.30;;
29380;SDS011;16364;52.490;13.326;2022-10-30T06:57:58;20.20;;;13.10;;
29380;SDS011;16364;52.490;13.326;2022-10-30T07:00:23;11.20;;;10.10;;
29380;SDS011;16364;52.490;13.326;2022-10-30T07:02:57;15.23;;;11.63;;
29380;SDS011;16364;52.490;13.326;2022-10-30T07:05:23;12.80;;;10.87;;
29380;SDS011;16364;52.490;13.326;2022-10-30T07:07:48;16.87;;;11.30;;
29380;SDS011;16364;52.490;13.326;2022-10-30T07:10:13;20.37;;;10.90;;
29380;SDS011;16364;52.490;13.326;2022-10-30T07:12:38;15.20;;;11.50;;
29380;SDS011;16364;52.490;13.326;2022-10-30T07:15:04;12.77;;;10.43;;
29380;SDS011;16364;52.490;13.326;2022-10-30T07:17:29;14.80;;;11.27;;
29380;SDS011;16364;52.490;13.326;2022-10-30T07:19:54;12.07;;;10.23;;
29380;SDS011;16364;52.490;13.326;2022-10-30T07:22:19;20.53;;;12.53;;
29380;SDS011;16364;52.490;13.326;2022-10-30T07:24:45;14.23;;;9.90;;
29380;SDS011;16364;52.490;13.326;2022-10-30T07:27:10;17.73;;;10.23;;
29380;SDS011;16364;52.490;13.326;2022-10-30T07:29:35;16.40;;;11.33;;
29380;SDS011;16364;52.490;13.326;2022-10-30T07:32:00;18.50;;;11.10;;
29380;SDS011;16364;52.490;13.326;2022-10-30T07:34:25;12.67;;;10.40;;
29380;SDS011;16364;52.490;13.326;2022-10-30T07:36:51;12.60;;;9.60;;
29380;SDS011;16364;52.490;13.326;2022-10-30T07:39:16;10.33;;;9.23;;
29380;SDS011;16364;52.490;13.326;2022-10-30T07:41:41;11.80;;;10.57;;
29380;SDS011;16364;52.490;13.326;2022-10-30T07:44:06;16.60;;;11.47;;
29380;SDS011;16364;52.490;13.326;2022-10-30T07:46:31;13.93;;;10.67;;
29380;SDS011;16364;52.490;13.326;2022-10-30T07:48:57;17.30;;;11.33;;
29380;SDS011;16364;52.490;13.326;2022-10-30T07:51:22;10.73;;;9.00;;
29380;SDS011;16364;52.490;13.326;2022-10-30T07:53:47;13.40;;;9.20;;
29380;SDS011;16364;52.490;13.326;2022-10-30T07:56:12;15.80;;;10.97;;
29380;SDS011;16364;52.490;13.326;2022-10-30T07:58:37;14.33;;;11.23;;
29380;SDS011;16364;52.490;13.326;2022-10-30T08:01:03;13.17;;;10.53;;
29380;SDS011;16364;52.490;13.326;2022-10-30T08:03:28;14.77;;;11.67;;
29380;SDS011;16364;52.490;13.326;2022-10-30T08:05:53;11.17;;;9.13;;
29380;SDS011;16364;52.490;13.326;2022-10-30T08:08:19;13.53;;;10.10;;
29380;SDS011;16364;52.490;13.326;2022-10-30T08:10:44;11.53;;;9.87;;
29380;SDS011;16364;52.490;13.326;2022-10-30T08:13:09;13.93;;;9.50;;
29380;SDS011;16364;52.490;13.326;2022-10-30T08:15:34;15.40;;;10.33;;
29380;SDS011;16364;52.490;13.326;2022-10-30T08:17:59;14.70;;;9.10;;
29380;SDS011;16364;52.490;13.326;2022-10-30T08:20:25;11.60;;;10.40;;
29380;SDS011;16364;52.490;13.326;2022-10-30T08:25:16;17.37;;;10.10;;
29380;SDS011;16364;52.490;13.326;2022-10-30T08:30:19;16.07;;;9.70;;
29380;SDS011;16364;52.490;13.326;2022-10-30T08:32:44;14.40;;;7.70;;
29380;SDS011;16364;52.490;13.326;2022-10-30T08:35:10;10.57;;;9.43;;
29380;SDS011;16364;52.490;13.326;2022-10-30T08:37:35;17.00;;;9.23;;
29380;SDS011;16364;52.490;13.326;2022-10-30T08:40:00;15.77;;;9.97;;
29380;SDS011;16364;52.490;13.326;2022-10-30T08:42:25;18.87;;;9.47;;
29380;SDS011;16364;52.490;13.326;2022-10-30T08:44:51;13.53;;;9.97;;
29380;SDS011;16364;52.490;13.326;2022-10-30T08:47:16;12.33;;;9.00;;
29380;SDS011;16364;52.490;13.326;2022-10-30T08:49:41;11.57;;;9.07;;
29380;SDS011;16364;52.490;13.326;2022-10-30T08:52:07;8.87;;;7.80;;
29380;SDS011;16364;52.490;13.326;2022-10-30T08:54:32;15.10;;;8.40;;
29380;SDS011;16364;52.490;13.326;2022-10-30T08:56:58;11.33;;;8.10;;
29380;SDS011;16364;52.490;13.326;2022-10-30T08:59:23;9.67;;;7.77;;
29380;SDS011;16364;52.490;13.326;2022-10-30T09:01:48;13.43;;;8.77;;
29380;SDS011;16364;52.490;13.326;2022-10-30T09:04:14;14.03;;;7.97;;
29380;SDS011;16364;52.490;13.326;2022-10-30T09:06:40;9.60;;;7.53;;
29380;SDS011;16364;52.490;13.326;2022-10-30T09:09:05;14.60;;;7.80;;
29380;SDS011;16364;52.490;13.326;2022-10-30T09:11:30;12.20;;;6.33;;
29380;SDS011;16364;52.490;13.326;2022-10-30T09:13:55;10.50;;;6.70;;
29380;SDS011;16364;52.490;13.326;2022-10-30T09:16:20;7.30;;;6.33;;
29380;SDS011;16364;52.490;13.326;2022-10-30T09:18:46;7.97;;;6.50;;
29380;SDS011;16364;52.490;13.326;2022-10-30T09:21:11;10.87;;;6.83;;
29380;SDS011;16364;52.490;13.326;2022-10-30T09:23:36;11.13;;;6.50;;
29380;SDS011;16364;52.490;13.326;2022-10-30T09:26:01;10.13;;;6.90;;
29380;SDS011;16364;52.490;13.326;2022-10-30T09:28:27;10.10;;;6.03;;
29380;SDS011;16364;52.490;13.326;2022-10-30T09:30:52;8.30;;;6.00;;
29380;SDS011;16364;52.490;13.326;2022-10-30T09:33:20;13.30;;;6.43;;
29380;SDS011;16364;52.490;13.326;2022-10-30T09:35:45;8.47;;;6.33;;
29380;SDS011;16364;52.490;13.326;2022-10-30T09:38:10;6.73;;;5.90;;
29380;SDS011;16364;52.490;13.326;2022-10-30T09:43:49;9.07;;;5.70;;
29380;SDS011;16364;52.490;13.326;2022-10-30T09:46:23;11.00;;;5.57;;
29380;SDS011;16364;52.490;13.326;2022-10-30T09:54:25;13.97;;;5.83;;
29380;SDS011;16364;52.490;13.326;2022-10-30T09:56:53;6.03;;;5.03;;
29380;SDS011;16364;52.490;13.326;2022-10-30T10:02:23;9.83;;;6.03;;
29380;SDS011;16364;52.490;13.326;2022-10-30T10:04:52;8.17;;;5.30;;
29380;SDS011;16364;52.490;13.326;2022-10-30T10:09:43;8.73;;;5.50;;
29380;SDS011;16364;52.490;13.326;2022-10-30T10:12:10;8.90;;;4.73;;
29380;SDS011;16364;52.490;13.326;2022-10-30T10:14:38;5.37;;;4.60;;
29380;SDS011;16364;52.490;13.326;2022-10-30T10:17:04;7.60;;;5.20;;
29380;SDS011;16364;52.490;13.326;2022-10-30T10:19:37;6.77;;;4.80;;
29380;SDS011;16364;52.490;13.326;2022-10-30T10:22:04;8.63;;;5.30;;
29380;SDS011;16364;52.490;13.326;2022-10-30T10:24:34;8.57;;;4.73;;
29380;SDS011;16364;52.490;13.326;2022-10-30T10:29:27;8.77;;;4.60;;
29380;SDS011;16364;52.490;13.326;2022-10-30T10:37:27;8.23;;;4.90;;
29380;SDS011;16364;52.490;13.326;2022-10-30T10:42:33;7.73;;;4.40;;
29380;SDS011;16364;52.490;13.326;2022-10-30T10:50:20;6.27;;;4.47;;
29380;SDS011;16364;52.490;13.326;2022-10-30T10:52:56;14.13;;;5.03;;
29380;SDS011;16364;52.490;13.326;2022-10-30T10:55:26;12.13;;;5.07;;
29380;SDS011;16364;52.490;13.326;2022-10-30T10:57:52;6.73;;;4.10;;
29380;SDS011;16364;52.490;13.326;2022-10-30T11:00:21;5.93;;;4.37;;
29380;SDS011;16364;52.490;13.326;2022-10-30T11:02:57;8.43;;;4.93;;
29380;SDS011;16364;52.490;13.326;2022-10-30T11:05:33;8.03;;;3.77;;
29380;SDS011;16364;52.490;13.326;2022-10-30T11:08:05;6.97;;;4.30;;
29380;SDS011;16364;52.490;13.326;2022-10-30T11:10:33;11.90;;;5.53;;
29380;SDS011;16364;52.490;13.326;2022-10-30T11:12:59;8.53;;;4.33;;
29380;SDS011;16364;52.490;13.326;2022-10-30T11:15:26;8.20;;;3.70;;
29380;SDS011;16364;52.490;13.326;2022-10-30T11:17:59;8.87;;;5.17;;
29380;SDS011;16364;52.490;13.326;2022-10-30T11:20:30;5.93;;;4.27;;
29380;SDS011;16364;52.490;13.326;2022-10-30T11:22:57;8.50;;;5.30;;
29380;SDS011;16364;52.490;13.326;2022-10-30T11:25:23;5.00;;;4.00;;
29380;SDS011;16364;52.490;13.326;2022-10-30T11:27:52;9.83;;;4.70;;
29380;SDS011;16364;52.490;13.326;2022-10-30T11:30:19;8.60;;;4.63;;
29380;SDS011;16364;52.490;13.326;2022-10-30T11:32:45;7.50;;;4.40;;
29380;SDS011;16364;52.490;13.326;2022-10-30T11:35:14;13.97;;;5.00;;
29380;SDS011;16364;52.490;13.326;2022-10-30T11:37:41;6.73;;;3.80;;
29380;SDS011;16364;52.490;13.326;2022-10-30T11:42:38;5.93;;;4.07;;
29380;SDS011;16364;52.490;13.326;2022-10-30T11:45:08;5.03;;;3.87;;
29380;SDS011;16364;52.490;13.326;2022-10-30T11:47:37;8.50;;;4.73;;
29380;SDS011;16364;52.490;13.326;2022-10-30T11:50:06;7.73;;;4.17;;
29380;SDS011;16364;52.490;13.326;2022-10-30T11:52:39;9.33;;;4.10;;
29380;SDS011;16364;52.490;13.326;2022-10-30T11:55:09;8.53;;;4.17;;
29380;SDS011;16364;52.490;13.326;2022-10-30T11:57:40;7.87;;;3.50;;
29380;SDS011;16364;52.490;13.326;2022-10-30T12:00:17;10.97;;;4.47;;
29380;SDS011;16364;52.490;13.326;2022-10-30T12:02:43;14.77;;;4.70;;
29380;SDS011;16364;52.490;13.326;2022-10-30T12:05:28;11.00;;;4.63;;
29380;SDS011;16364;52.490;13.326;2022-10-30T12:07:54;10.87;;;4.60;;
29380;SDS011;16364;52.490;13.326;2022-10-30T12:13:03;12.23;;;5.30;;
29380;SDS011;16364;52.490;13.326;2022-10-30T12:15:35;6.03;;;4.87;;
29380;SDS011;16364;52.490;13.326;2022-10-30T12:18:02;9.73;;;5.13;;
29380;SDS011;16364;52.490;13.326;2022-10-30T12:20:27;10.10;;;4.40;;
29380;SDS011;16364;52.490;13.326;2022-10-30T12:22:53;7.50;;;4.40;;
29380;SDS011;16364;52.490;13.326;2022-10-30T12:25:25;12.30;;;4.97;;
29380;SDS011;16364;52.490;13.326;2022-10-30T12:27:59;7.87;;;4.60;;
29380;SDS011;16364;52.490;13.326;2022-10-30T12:30:24;6.20;;;3.33;;
29380;SDS011;16364;52.490;13.326;2022-10-30T12:32:51;9.23;;;5.53;;
29380;SDS011;16364;52.490;13.326;2022-10-30T12:37:49;10.23;;;4.87;;
29380;SDS011;16364;52.490;13.326;2022-10-30T12:40:17;6.70;;;3.47;;
29380;SDS011;16364;52.490;13.326;2022-10-30T12:42:49;9.33;;;4.20;;
29380;SDS011;16364;52.490;13.326;2022-10-30T12:45:16;8.33;;;4.20;;
29380;SDS011;16364;52.490;13.326;2022-10-30T12:48:02;9.10;;;4.73;;
29380;SDS011;16364;52.490;13.326;2022-10-30T12:50:34;6.87;;;4.03;;
29380;SDS011;16364;52.490;13.326;2022-10-30T12:53:05;8.60;;;3.90;;
29380;SDS011;16364;52.490;13.326;2022-10-30T12:55:40;11.17;;;4.30;;
29380;SDS011;16364;52.490;13.326;2022-10-30T12:58:10;8.40;;;4.07;;
29380;SDS011;16364;52.490;13.326;2022-10-30T13:00:41;8.27;;;4.30;;
29380;SDS011;16364;52.490;13.326;2022-10-30T13:03:18;6.73;;;3.90;;
29380;SDS011;16364;52.490;13.326;2022-10-30T13:05:46;10.50;;;4.83;;
29380;SDS011;16364;52.490;13.326;2022-10-30T13:13:13;4.63;;;3.53;;
29380;SDS011;16364;52.490;13.326;2022-10-30T13:15:41;10.33;;;4.17;;
29380;SDS011;16364;52.490;13.326;2022-10-30T13:18:11;10.80;;;4.33;;
29380;SDS011;16364;52.490;13.326;2022-10-30T13:20:37;10.50;;;3.33;;
29380;SDS011;16364;52.490;13.326;2022-10-30T13:23:10;14.27;;;4.33;;
29380;SDS011;16364;52.490;13.326;2022-10-30T13:25:54;7.53;;;3.93;;
29380;SDS011;16364;52.490;13.326;2022-10-30T13:28:24;7.50;;;4.10;;
29380;SDS011;16364;52.490;13.326;2022-10-30T13:30:58;7.80;;;3.67;;
29380;SDS011;16364;52.490;13.326;2022-10-30T13:33:38;7.90;;;3.80;;
29380;SDS011;16364;52.490;13.326;2022-10-30T13:36:10;11.00;;;3.83;;
29380;SDS011;16364;52.490;13.326;2022-10-30T13:41:22;7.97;;;3.83;;
29380;SDS011;16364;52.490;13.326;2022-10-30T13:46:32;6.50;;;3.93;;
29380;SDS011;16364;52.490;13.326;2022-10-30T13:54:07;11.10;;;4.33;;
29380;SDS011;16364;52.490;13.326;2022-10-30T13:56:34;6.87;;;4.33;;
29380;SDS011;16364;52.490;13.326;2022-10-30T14:02:03;4.70;;;3.67;;
29380;SDS011;16364;52.490;13.326;2022-10-30T14:04:41;8.37;;;4.33;;
29380;SDS011;16364;52.490;13.326;2022-10-30T14:07:29;11.03;;;4.50;;
29380;SDS011;16364;52.490;13.326;2022-10-30T14:10:08;8.60;;;3.90;;
29380;SDS011;16364;52.490;13.326;2022-10-30T14:20:48;4.73;;;3.83;;
29380;SDS011;16364;52.490;13.326;2022-10-30T14:23:14;5.53;;;4.20;;
29380;SDS011;16364;52.490;13.326;2022-10-30T14:25:44;5.10;;;3.90;;
29380;SDS011;16364;52.490;13.326;2022-10-30T14:28:18;5.80;;;3.57;;
29380;SDS011;16364;52.490;13.326;2022-10-30T14:30:44;7.07;;;4.53;;
29380;SDS011;16364;52.490;13.326;2022-10-30T14:33:32;6.33;;;3.60;;
29380;SDS011;16364;52.490;13.326;2022-10-30T14:38:39;5.43;;;3.70;;
29380;SDS011;16364;52.490;13.326;2022-10-30T14:41:06;10.07;;;3.97;;
29380;SDS011;16364;52.490;13.326;2022-10-30T14:43:48;6.13;;;4.37;;
29380;SDS011;16364;52.490;13.326;2022-10-30T14:46:19;9.60;;;4.10;;
29380;SDS011;16364;52.490;13.326;2022-10-30T14:48:51;4.23;;;3.70;;
29380;SDS011;16364;52.490;13.326;2022-10-30T14:51:23;10.77;;;4.37;;
29380;SDS011;16364;52.490;13.326;2022-10-30T14:56:34;7.90;;;4.07;;
29380;SDS011;16364;52.490;13.326;2022-10-30T15:01:41;7.27;;;4.07;;
29380;SDS011;16364;52.490;13.326;2022-10-30T15:16:48;9.40;;;3.97;;
29380;SDS011;16364;52.490;13.326;2022-10-30T15:19:14;9.53;;;4.17;;
29380;SDS011;16364;52.490;13.326;2022-10-30T15:21:40;5.53;;;3.97;;
29380;SDS011;16364;52.490;13.326;2022-10-30T15:24:10;5.00;;;4.53;;
29380;SDS011;16364;52.490;13.326;2022-10-30T15:26:36;5.50;;;4.10;;
29380;SDS011;16364;52.490;13.326;2022-10-30T15:29:02;5.00;;;3.63;;
29380;SDS011;16364;52.490;13.326;2022-10-30T15:31:28;6.30;;;4.00;;
29380;SDS011;16364;52.490;13.326;2022-10-30T15:33:54;5.13;;;3.73;;
29380;SDS011;16364;52.490;13.326;2022-10-30T15:36:23;4.20;;;3.60;;
29380;SDS011;16364;52.490;13.326;2022-10-30T15:41:42;4.03;;;3.60;;
29380;SDS011;16364;52.490;13.326;2022-10-30T15:44:09;5.33;;;4.00;;
29380;SDS011;16364;52.490;13.326;2022-10-30T15:46:35;6.47;;;5.27;;
29380;SDS011;16364;52.490;13.326;2022-10-30T15:49:00;9.93;;;7.37;;
29380;SDS011;16364;52.490;13.326;2022-10-30T15:51:25;16.50;;;6.83;;
29380;SDS011;16364;52.490;13.326;2022-10-30T15:53:52;8.20;;;6.93;;
29380;SDS011;16364;52.490;13.326;2022-10-30T15:56:25;13.17;;;11.80;;
29380;SDS011;16364;52.490;13.326;2022-10-30T15:58:52;17.63;;;12.27;;
29380;SDS011;16364;52.490;13.326;2022-10-30T16:01:23;18.73;;;11.33;;
29380;SDS011;16364;52.490;13.326;2022-10-30T16:03:52;13.80;;;9.57;;
29380;SDS011;16364;52.490;13.326;2022-10-30T16:06:18;9.97;;;8.13;;
29380;SDS011;16364;52.490;13.326;2022-10-30T16:08:44;13.20;;;7.80;;
29380;SDS011;16364;52.490;13.326;2022-10-30T16:11:10;9.93;;;6.37;;
29380;SDS011;16364;52.490;13.326;2022-10-30T16:13:35;10.40;;;6.10;;
29380;SDS011;16364;52.490;13.326;2022-10-30T16:16:01;8.60;;;5.70;;
29380;SDS011;16364;52.490;13.326;2022-10-30T16:18:27;9.67;;;5.73;;
29380;SDS011;16364;52.490;13.326;2022-10-30T16:20:55;9.90;;;6.73;;